| Date | Time | Temp. (oF) | Dew Point (oF) | Rel. Hum. (%) | Press. (in.) | Wind Dir. | Wind Speed (mph) | Hourly Rainfall (in.) |
|
|---|---|---|---|---|---|---|---|---|---|
| 1 | 05/27 | 00:00 | 74 | 67 | 79 | 29.77 | WNW | 0 | 0.00 |
| 2 | 05/26 | 23:00 | 76 | 67 | 74 | 29.78 | NW | 3 | 0.00 |
| 3 | 05/26 | 22:00 | 79 | 67 | 67 | 29.78 | WNW | 1 | 0.00 |
| 4 | 05/26 | 21:00 | 82 | 66 | 60 | 29.76 | W | 0 | 0.00 |
| 5 | 05/26 | 20:00 | 85 | 66 | 55 | 29.76 | NW | 2 | 0.00 |
| 6 | 05/26 | 19:00 | 88 | 66 | 49 | 29.76 | NW | 1 | 0.00 |
| 7 | 05/26 | 18:00 | 90 | 64 | 44 | 29.77 | NW | 6 | 0.00 |
| 8 | 05/26 | 17:00 | 90 | 64 | 43 | 29.79 | NW | 1 | 0.00 |
| 9 | 05/26 | 16:00 | 90 | 61 | 39 | 29.81 | NNW | 4 | 0.00 |
| 10 | 05/26 | 15:00 | 90 | 63 | 42 | 29.84 | NNE | 11 | 0.00 |
| 11 | 05/26 | 14:00 | 88 | 66 | 50 | 29.86 | WNW | 3 | 0.00 |
| 12 | 05/26 | 13:00 | 86 | 65 | 51 | 29.90 | NE | 5 | 0.00 |
| 13 | 05/26 | 12:00 | 84 | 64 | 53 | 29.92 | N | 6 | 0.00 |
| 14 | 05/26 | 11:00 | 83 | 67 | 60 | 29.94 | NW | 3 | 0.00 |
| 15 | 05/26 | 10:00 | 80 | 67 | 66 | 29.95 | NE | 6 | 0.00 |
| 16 | 05/26 | 09:00 | 75 | 67 | 77 | 29.97 | WNW | 4 | 0.00 |
| 17 | 05/26 | 08:00 | 68 | 66 | 94 | 29.98 | WSW | 3 | 0.00 |
| 18 | 05/26 | 07:00 | 63 | 62 | 99 | 29.99 | WSW | 1 | 0.00 |
| 19 | 05/26 | 06:00 | 62 | 61 | 99 | 29.99 | WSW | 0 | 0.00 |
| 20 | 05/26 | 05:00 | 62 | 61 | 97 | 30.00 | WSW | 0 | 0.00 |
| 21 | 05/26 | 04:00 | 63 | 61 | 96 | 30.00 | WSW | 0 | 0.00 |
| 22 | 05/26 | 03:00 | 64 | 62 | 94 | 30.01 | WSW | 0 | 0.00 |
| 23 | 05/26 | 02:00 | 65 | 62 | 93 | 30.03 | WSW | 1 | 0.00 |
| 24 | 05/26 | 01:00 | 66 | 63 | 92 | 30.05 | SW | 0 | 0.00 |